createdAt,value
2022-10-05T00:01:04.433Z,23.25
2022-10-05T00:03:34.717Z,23.47
2022-10-05T00:06:05.305Z,23.19
2022-10-05T00:08:36.137Z,23.22
2022-10-05T00:11:08.369Z,23.23
2022-10-05T00:13:36.797Z,23.20
2022-10-05T00:16:21.925Z,22.98
2022-10-05T00:18:54.653Z,22.93
2022-10-05T00:21:24.153Z,22.69
2022-10-05T00:24:01.732Z,22.34
2022-10-05T00:26:34.046Z,22.44
2022-10-05T00:29:09.538Z,22.60
2022-10-05T00:31:40.431Z,22.64
2022-10-05T00:34:10.781Z,22.23
2022-10-05T00:36:40.285Z,22.22
2022-10-05T00:39:08.287Z,22.42
2022-10-05T00:42:08.869Z,22.19
2022-10-05T00:45:07.886Z,21.53
2022-10-05T00:48:08.700Z,21.30
2022-10-05T00:50:41.995Z,21.48
2022-10-05T00:53:12.905Z,21.39
2022-10-05T00:55:58.274Z,21.27
2022-10-05T00:59:19.397Z,20.99
2022-10-05T01:02:11.527Z,20.64
2022-10-05T01:05:00.776Z,20.50
2022-10-05T01:08:03.947Z,20.48
2022-10-05T01:10:38.149Z,20.43
2022-10-05T01:13:08.958Z,20.37
2022-10-05T01:16:02.969Z,20.42
2022-10-05T01:18:53.678Z,20.47
2022-10-05T01:21:23.336Z,20.34
2022-10-05T01:24:06.484Z,20.31
2022-10-05T01:26:59.125Z,20.24
2022-10-05T01:29:49.940Z,19.91
2022-10-05T01:32:20.798Z,19.68
2022-10-05T01:35:14.550Z,19.43
2022-10-05T01:38:24.005Z,19.29
2022-10-05T01:41:10.247Z,18.94
2022-10-05T01:44:05.818Z,18.78
2022-10-05T01:46:46.816Z,18.78
2022-10-05T01:49:33.909Z,18.68
2022-10-05T01:52:09.335Z,18.61
2022-10-05T01:55:08.401Z,18.51
2022-10-05T01:58:03.725Z,18.51
2022-10-05T02:00:38.009Z,18.49
2022-10-05T02:03:18.903Z,18.50
2022-10-05T02:05:59.288Z,18.48
2022-10-05T02:08:44.449Z,18.52
2022-10-05T02:11:14.696Z,18.67
2022-10-05T02:13:49.784Z,18.37
2022-10-05T02:16:31.017Z,18.19
2022-10-05T02:19:10.054Z,18.12
2022-10-05T02:21:38.304Z,17.97
2022-10-05T02:24:16.557Z,17.93
2022-10-05T02:26:45.863Z,17.99
2022-10-05T02:29:18.286Z,17.71
2022-10-05T02:31:54.926Z,17.47
2022-10-05T02:34:30.319Z,17.31
2022-10-05T02:37:19.830Z,17.10
2022-10-05T02:40:25.668Z,17.10
2022-10-05T02:43:05.370Z,17.01
2022-10-05T02:46:00.518Z,16.92
2022-10-05T02:49:03.933Z,16.81
2022-10-05T02:51:38.267Z,16.88
2022-10-05T02:54:33.070Z,16.90
2022-10-05T02:57:04.496Z,16.93
2022-10-05T02:59:37.770Z,16.94
2022-10-05T03:02:23.479Z,16.90
2022-10-05T03:05:21.091Z,16.81
2022-10-05T03:08:16.763Z,16.72
2022-10-05T03:10:47.399Z,16.68
2022-10-05T03:13:37.766Z,16.57
2022-10-05T03:16:14.328Z,16.39
2022-10-05T03:18:42.441Z,16.25
2022-10-05T03:21:13.061Z,16.15
2022-10-05T03:24:19.345Z,16.08
2022-10-05T03:26:59.209Z,16.08
2022-10-05T03:29:50.138Z,15.94
2022-10-05T03:32:55.900Z,15.93
2022-10-05T03:35:42.136Z,15.60
2022-10-05T03:38:21.809Z,15.07
2022-10-05T03:40:58.876Z,15.13
2022-10-05T03:43:53.718Z,15.24
2022-10-05T03:46:34.120Z,15.09
2022-10-05T03:49:20.658Z,14.96
2022-10-05T03:51:59.993Z,15.03
2022-10-05T03:54:54.982Z,14.94
2022-10-05T03:57:29.558Z,14.87
2022-10-05T04:00:07.939Z,14.85
2022-10-05T04:02:40.848Z,14.79
2022-10-05T04:05:11.814Z,14.79
2022-10-05T04:08:00.849Z,14.70
2022-10-05T04:10:51.295Z,14.67
2022-10-05T04:13:32.582Z,14.59
2022-10-05T04:16:19.093Z,14.72
2022-10-05T04:19:11.643Z,14.61
2022-10-05T04:22:04.100Z,14.58
2022-10-05T04:24:42.784Z,14.43
2022-10-05T04:27:17.154Z,14.29
2022-10-05T04:29:50.732Z,14.14
2022-10-05T04:32:36.464Z,14.11
2022-10-05T04:35:45.965Z,14.08
2022-10-05T04:38:22.707Z,13.95
2022-10-05T04:41:08.561Z,13.32
2022-10-05T04:44:13.862Z,13.21
2022-10-05T04:47:06.438Z,13.11
2022-10-05T04:49:58.683Z,13.15
2022-10-05T04:52:41.100Z,13.15
2022-10-05T04:55:46.078Z,13.08
2022-10-05T04:58:42.897Z,13.19
2022-10-05T05:01:47.142Z,13.36
2022-10-05T05:04:33.366Z,13.30
2022-10-05T05:07:22.597Z,13.36
2022-10-05T05:10:08.907Z,13.23
2022-10-05T05:12:45.971Z,13.17
2022-10-05T05:15:41.459Z,13.11
2022-10-05T05:18:31.075Z,13.01
2022-10-05T05:21:20.014Z,12.84
2022-10-05T05:24:19.923Z,12.79
2022-10-05T05:27:01.371Z,12.77
2022-10-05T05:30:08.543Z,12.50
2022-10-05T05:32:58.110Z,12.18
2022-10-05T05:35:56.586Z,12.26
2022-10-05T05:38:35.017Z,12.61
2022-10-05T05:41:13.623Z,12.75
2022-10-05T05:44:03.207Z,12.65
2022-10-05T05:47:02.808Z,12.17
2022-10-05T05:49:46.828Z,11.88
2022-10-05T05:52:29.587Z,11.81
2022-10-05T05:55:08.717Z,11.71
2022-10-05T05:57:56.999Z,11.59
2022-10-05T06:00:35.440Z,11.63
2022-10-05T06:03:15.866Z,11.48
2022-10-05T06:05:55.954Z,11.56
2022-10-05T06:08:40.768Z,11.56
2022-10-05T06:11:39.306Z,11.68
2022-10-05T06:14:17.984Z,11.66
2022-10-05T06:17:17.047Z,11.73
2022-10-05T06:19:51.388Z,11.41
2022-10-05T06:22:39.705Z,11.09
2022-10-05T06:25:13.781Z,11.21
2022-10-05T06:27:56.785Z,11.31
2022-10-05T06:30:42.849Z,11.46
2022-10-05T06:33:23.113Z,11.47
2022-10-05T06:35:54.063Z,11.44
2022-10-05T06:38:38.817Z,11.55
2022-10-05T06:41:20.407Z,11.56
2022-10-05T06:43:51.319Z,11.60
2022-10-05T06:46:33.069Z,11.51
2022-10-05T06:49:19.185Z,11.39
2022-10-05T06:51:55.858Z,11.10
2022-10-05T06:54:49.661Z,10.79
2022-10-05T06:58:09.297Z,10.66
2022-10-05T07:00:53.537Z,10.65
2022-10-05T07:03:58.671Z,10.66
2022-10-05T07:06:52.647Z,10.54
2022-10-05T07:09:32.987Z,10.50
2022-10-05T07:12:28.781Z,10.47
2022-10-05T07:15:20.300Z,10.49
2022-10-05T07:18:30.767Z,10.49
2022-10-05T07:21:42.933Z,10.62
2022-10-05T07:24:38.525Z,10.70
2022-10-05T07:27:21.922Z,10.62
2022-10-05T07:29:49.935Z,10.58
2022-10-05T07:32:36.539Z,10.42
2022-10-05T07:35:15.480Z,10.49
2022-10-05T07:37:50.163Z,10.46
2022-10-05T07:40:30.206Z,10.15
2022-10-05T07:43:25.909Z,10.04
2022-10-05T07:46:30.325Z,10.01
2022-10-05T07:49:07.135Z,9.97
2022-10-05T07:51:41.135Z,9.95
2022-10-05T07:54:14.947Z,9.94
2022-10-05T07:56:51.006Z,9.88
2022-10-05T07:59:37.557Z,9.93
2022-10-05T08:02:17.951Z,9.93
2022-10-05T08:05:01.189Z,9.92
2022-10-05T08:07:32.650Z,9.88
2022-10-05T08:10:33.894Z,9.71
2022-10-05T08:13:32.383Z,9.73
2022-10-05T08:16:06.855Z,9.72
2022-10-05T08:18:49.583Z,9.68
2022-10-05T08:21:22.884Z,9.58
2022-10-05T08:24:15.389Z,9.56
2022-10-05T08:27:14.840Z,9.52
2022-10-05T08:30:07.529Z,9.55
2022-10-05T08:32:53.811Z,9.01
2022-10-05T08:35:28.209Z,9.16
2022-10-05T08:37:59.289Z,9.14
2022-10-05T08:40:43.893Z,9.15
2022-10-05T08:43:42.239Z,9.42
2022-10-05T08:46:51.685Z,9.58
2022-10-05T08:49:51.415Z,9.27
2022-10-05T08:52:52.437Z,9.07
2022-10-05T08:55:29.881Z,9.04
2022-10-05T08:58:27.974Z,8.99
2022-10-05T09:01:27.486Z,9.12
2022-10-05T09:04:11.704Z,9.06
2022-10-05T09:07:00.766Z,9.06
2022-10-05T09:10:01.704Z,9.20
2022-10-05T09:12:48.503Z,9.10
2022-10-05T09:15:53.307Z,9.23
2022-10-05T09:18:24.341Z,9.13
2022-10-05T09:21:14.184Z,9.22
2022-10-05T09:23:49.938Z,9.14
2022-10-05T09:26:45.678Z,9.18
2022-10-05T09:29:41.319Z,9.17
2022-10-05T09:32:24.403Z,8.72
2022-10-05T09:35:07.055Z,8.75
2022-10-05T09:37:58.869Z,8.90
2022-10-05T09:41:07.849Z,8.91
2022-10-05T09:43:54.287Z,8.85
2022-10-05T09:46:43.666Z,8.76
2022-10-05T09:49:29.824Z,8.78
2022-10-05T09:52:04.655Z,8.89
2022-10-05T09:54:53.805Z,8.82
2022-10-05T09:57:30.651Z,8.59
2022-10-05T10:00:40.842Z,8.51
2022-10-05T10:03:26.966Z,8.48
2022-10-05T10:06:21.060Z,8.39
2022-10-05T10:08:52.178Z,8.24
2022-10-05T10:11:38.410Z,8.31
2022-10-05T10:14:42.322Z,8.21
2022-10-05T10:17:39.759Z,8.27
2022-10-05T10:20:22.112Z,8.27
2022-10-05T10:23:27.442Z,8.32
2022-10-05T10:26:04.343Z,8.39
2022-10-05T10:28:35.099Z,8.34
2022-10-05T10:31:40.423Z,8.35
2022-10-05T10:34:14.821Z,7.90
2022-10-05T10:36:50.796Z,7.78
2022-10-05T10:39:53.537Z,7.89
2022-10-05T10:43:05.674Z,7.83
2022-10-05T10:46:10.700Z,7.80
2022-10-05T10:48:41.560Z,7.92
2022-10-05T10:51:33.692Z,7.90
2022-10-05T10:54:38.711Z,7.79
2022-10-05T10:57:17.676Z,7.77
2022-10-05T11:00:13.429Z,7.83
2022-10-05T11:03:19.231Z,7.78
2022-10-05T11:06:09.366Z,7.89
2022-10-05T11:08:52.318Z,7.92
2022-10-05T11:11:41.445Z,7.85
2022-10-05T11:14:28.095Z,7.78
2022-10-05T11:17:10.782Z,7.68
2022-10-05T11:20:05.388Z,7.60
2022-10-05T11:22:36.533Z,7.46
2022-10-05T11:25:33.053Z,7.41
2022-10-05T11:28:09.182Z,7.13
2022-10-05T11:30:52.142Z,7.08
2022-10-05T11:33:38.096Z,7.16
2022-10-05T11:36:14.668Z,7.17
2022-10-05T11:38:57.226Z,7.25
2022-10-05T11:41:25.208Z,7.28
2022-10-05T11:43:56.017Z,7.42
2022-10-05T11:46:37.134Z,7.51
2022-10-05T11:49:45.179Z,7.60
2022-10-05T11:52:22.284Z,7.59
2022-10-05T11:55:16.540Z,7.46
2022-10-05T11:57:53.250Z,7.49
2022-10-05T12:00:32.097Z,7.36
2022-10-05T12:03:34.148Z,7.46
2022-10-05T12:06:35.847Z,7.35
2022-10-05T12:09:21.617Z,7.55
2022-10-05T12:12:01.375Z,7.43
2022-10-05T12:14:29.416Z,7.50
2022-10-05T12:17:15.720Z,7.07
2022-10-05T12:19:52.335Z,7.08
2022-10-05T12:22:33.464Z,6.87
2022-10-05T12:25:20.500Z,6.95
2022-10-05T12:27:53.561Z,6.98
2022-10-05T12:30:36.244Z,7.00
2022-10-05T12:33:16.041Z,7.10
2022-10-05T12:35:56.706Z,7.05
2022-10-05T12:38:49.969Z,7.26
2022-10-05T12:41:35.055Z,7.20
2022-10-05T12:44:43.528Z,7.15
2022-10-05T12:47:53.488Z,6.87
2022-10-05T12:50:49.764Z,6.75
2022-10-05T12:53:41.249Z,6.88
2022-10-05T12:56:09.325Z,6.94
2022-10-05T12:58:45.237Z,6.93
2022-10-05T13:01:40.831Z,6.87
2022-10-05T13:04:31.678Z,6.83
2022-10-05T13:07:31.197Z,6.81
2022-10-05T13:10:23.089Z,6.81
2022-10-05T13:13:17.470Z,6.79
2022-10-05T13:16:01.355Z,6.77
2022-10-05T13:18:49.623Z,6.72
2022-10-05T13:21:23.079Z,6.62
2022-10-05T13:24:08.781Z,6.55
2022-10-05T13:26:36.721Z,6.52
2022-10-05T13:29:17.760Z,6.50
2022-10-05T13:31:54.729Z,6.47
2022-10-05T13:34:40.500Z,6.46
2022-10-05T13:37:14.575Z,6.52
2022-10-05T13:39:50.466Z,6.73
2022-10-05T13:42:45.656Z,6.82
2022-10-05T13:45:24.591Z,6.87
2022-10-05T13:48:04.532Z,6.80
2022-10-05T13:50:39.779Z,6.72
2022-10-05T13:53:48.662Z,6.73
2022-10-05T13:56:42.686Z,6.49
2022-10-05T13:59:33.929Z,6.31
2022-10-05T14:02:21.684Z,6.27
2022-10-05T14:05:04.834Z,6.17
2022-10-05T14:07:50.034Z,6.19
2022-10-05T14:10:41.389Z,6.40
2022-10-05T14:13:18.270Z,6.48
2022-10-05T14:16:29.514Z,6.68
2022-10-05T14:19:18.237Z,6.76
2022-10-05T14:22:12.208Z,6.83
2022-10-05T14:24:53.785Z,6.76
2022-10-05T14:27:26.491Z,6.57
2022-10-05T14:29:56.723Z,6.47
2022-10-05T14:32:26.398Z,6.35
2022-10-05T14:35:21.172Z,6.55
2022-10-05T14:37:54.938Z,6.62
2022-10-05T14:40:37.585Z,6.72
2022-10-05T14:43:17.561Z,6.79
2022-10-05T14:45:54.793Z,6.29
2022-10-05T14:48:26.324Z,6.42
2022-10-05T14:51:01.519Z,6.48
2022-10-05T14:53:45.040Z,6.45
2022-10-05T14:56:13.180Z,6.70
2022-10-05T14:59:02.633Z,6.71
2022-10-05T15:01:31.714Z,6.84
2022-10-05T15:04:18.117Z,6.97
2022-10-05T15:06:55.317Z,7.11
2022-10-05T15:09:50.037Z,7.23
2022-10-05T15:12:45.545Z,7.50
2022-10-05T15:15:36.141Z,7.59
2022-10-05T15:18:30.966Z,7.65
2022-10-05T15:21:14.697Z,7.74
2022-10-05T15:23:50.514Z,7.68
2022-10-05T15:26:30.324Z,7.92
2022-10-05T15:29:28.879Z,8.21
2022-10-05T15:32:19.602Z,8.46
2022-10-05T15:35:27.020Z,8.71
2022-10-05T15:38:15.611Z,8.94
2022-10-05T15:40:59.066Z,9.25
2022-10-05T15:43:38.896Z,9.48
2022-10-05T15:46:24.987Z,9.78
2022-10-05T15:49:30.240Z,9.94
2022-10-05T15:52:23.340Z,10.19
2022-10-05T15:55:06.633Z,10.33
2022-10-05T15:58:00.791Z,10.50
2022-10-05T16:00:29.250Z,10.61
2022-10-05T16:03:15.512Z,10.76
2022-10-05T16:05:49.818Z,11.16
2022-10-05T16:08:27.577Z,11.30
2022-10-05T16:10:59.566Z,11.40
2022-10-05T16:13:44.184Z,11.64
2022-10-05T16:16:32.335Z,11.74
2022-10-05T16:19:38.253Z,11.84
2022-10-05T16:22:14.767Z,11.92
2022-10-05T16:24:54.017Z,11.77
2022-10-05T16:27:26.889Z,12.12
2022-10-05T16:30:16.115Z,12.53
2022-10-05T16:32:46.063Z,13.02
2022-10-05T16:35:34.858Z,13.19
2022-10-05T16:38:08.631Z,13.34
2022-10-05T16:41:11.523Z,13.55
2022-10-05T16:44:04.309Z,13.61
2022-10-05T16:47:21.953Z,13.48
2022-10-05T16:50:31.518Z,13.76
2022-10-05T16:53:32.581Z,13.82
2022-10-05T16:56:08.778Z,14.20
2022-10-05T16:58:57.737Z,14.36
2022-10-05T17:01:34.335Z,14.50
2022-10-05T17:04:25.025Z,14.54
2022-10-05T17:07:10.361Z,14.71
2022-10-05T17:09:41.201Z,14.93
2022-10-05T17:12:54.112Z,14.79
2022-10-05T17:16:00.480Z,14.70
2022-10-05T17:18:30.302Z,14.98
2022-10-05T17:20:58.309Z,15.41
2022-10-05T17:23:33.372Z,15.83
2022-10-05T17:26:38.561Z,15.71
2022-10-05T17:29:16.117Z,15.74
2022-10-05T17:32:11.593Z,15.80
2022-10-05T17:35:00.508Z,16.26
2022-10-05T17:37:28.515Z,16.35
2022-10-05T17:39:59.342Z,16.62
2022-10-05T17:42:27.433Z,16.56
2022-10-05T17:44:58.685Z,16.80
2022-10-05T17:47:57.457Z,17.22
2022-10-05T17:50:45.334Z,17.36
2022-10-05T17:53:36.508Z,17.41
2022-10-05T17:56:07.413Z,17.49
2022-10-05T17:58:35.362Z,17.25
2022-10-05T18:01:14.466Z,17.98
2022-10-05T18:03:50.445Z,18.02
2022-10-05T18:06:27.460Z,18.03
2022-10-05T18:09:16.873Z,18.12
2022-10-05T18:12:02.775Z,18.54
2022-10-05T18:14:50.712Z,18.90
2022-10-05T18:17:52.907Z,19.07
2022-10-05T18:20:26.781Z,18.67
2022-10-05T18:22:55.718Z,19.33
2022-10-05T18:25:38.675Z,19.39
2022-10-05T18:28:06.738Z,18.92
2022-10-05T18:31:05.916Z,18.68
2022-10-05T18:33:54.487Z,19.42
2022-10-05T18:36:22.511Z,19.56
2022-10-05T18:39:04.414Z,19.61
2022-10-05T18:41:32.406Z,19.63
2022-10-05T18:44:29.871Z,19.69
2022-10-05T18:47:31.027Z,19.71
2022-10-05T18:50:41.081Z,20.04
2022-10-05T18:53:20.603Z,20.33
2022-10-05T18:56:04.415Z,20.35
2022-10-05T18:58:38.851Z,20.49
2022-10-05T19:01:20.968Z,21.12
2022-10-05T19:04:16.270Z,21.42
2022-10-05T19:06:53.445Z,21.88
2022-10-05T19:09:24.412Z,22.18
2022-10-05T19:12:05.269Z,22.07
2022-10-05T19:14:39.249Z,22.32
2022-10-05T19:17:12.920Z,22.44
2022-10-05T19:20:01.827Z,22.35
2022-10-05T19:23:00.803Z,22.19
2022-10-05T19:25:45.203Z,22.80
2022-10-05T19:28:19.092Z,21.67
2022-10-05T19:31:02.060Z,22.27
2022-10-05T19:34:18.925Z,23.10
2022-10-05T19:37:12.989Z,22.97
2022-10-05T19:39:53.836Z,23.39
2022-10-05T19:42:21.808Z,23.50
2022-10-05T19:45:06.768Z,22.89
2022-10-05T19:47:48.912Z,22.28
2022-10-05T19:50:36.960Z,22.67
2022-10-05T19:53:23.663Z,23.02
2022-10-05T19:55:54.555Z,23.73
2022-10-05T19:58:29.796Z,23.91
2022-10-05T20:00:59.423Z,23.51
2022-10-05T20:03:30.451Z,23.91
2022-10-05T20:06:06.797Z,24.18
2022-10-05T20:08:43.700Z,24.65
2022-10-05T20:11:19.946Z,23.99
2022-10-05T20:13:55.132Z,23.81
2022-10-05T20:16:26.461Z,23.84
2022-10-05T20:18:54.639Z,24.70
2022-10-05T20:21:48.710Z,25.12
2022-10-05T20:24:24.885Z,25.13
2022-10-05T20:26:55.083Z,24.73
2022-10-05T20:29:23.076Z,24.13
2022-10-05T20:31:53.452Z,24.53
2022-10-05T20:34:24.904Z,24.01
2022-10-05T20:36:53.151Z,23.84
2022-10-05T20:39:21.209Z,25.04
2022-10-05T20:41:49.523Z,25.49
2022-10-05T20:44:17.610Z,25.74
2022-10-05T20:46:48.039Z,25.93
2022-10-05T20:49:19.034Z,26.06
2022-10-05T20:51:47.727Z,25.49
2022-10-05T20:54:15.761Z,26.46
2022-10-05T20:56:43.862Z,26.67
2022-10-05T20:59:11.932Z,25.95
2022-10-05T21:01:39.938Z,26.29
2022-10-05T21:04:07.979Z,26.56
2022-10-05T21:06:36.040Z,27.22
2022-10-05T21:09:05.373Z,27.41
2022-10-05T21:11:33.372Z,27.02
2022-10-05T21:14:05.825Z,26.12
2022-10-05T21:16:34.232Z,25.65
2022-10-05T21:19:05.974Z,26.05
2022-10-05T21:21:37.714Z,26.61
2022-10-05T21:24:06.794Z,26.95
2022-10-05T21:26:35.105Z,26.42
2022-10-05T21:29:07.883Z,27.06
2022-10-05T21:31:42.304Z,27.67
2022-10-05T21:34:10.346Z,27.92
2022-10-05T21:36:38.361Z,27.97
2022-10-05T21:39:06.509Z,28.22
2022-10-05T21:41:34.524Z,28.42
2022-10-05T21:44:02.525Z,28.27
2022-10-05T21:46:30.882Z,28.42
2022-10-05T21:48:58.938Z,28.60
2022-10-05T21:51:28.020Z,28.07
2022-10-05T21:54:07.748Z,28.11
2022-10-05T21:56:38.586Z,28.45
2022-10-05T21:59:11.904Z,27.66
2022-10-05T22:01:39.940Z,27.14
2022-10-05T22:04:08.496Z,27.22
2022-10-05T22:06:36.919Z,27.45
2022-10-05T22:09:07.567Z,27.34
2022-10-05T22:11:35.632Z,27.54
2022-10-05T22:14:03.766Z,27.79
2022-10-05T22:16:35.126Z,27.61
2022-10-05T22:19:11.402Z,28.12
2022-10-05T22:21:39.442Z,28.01
2022-10-05T22:24:07.608Z,28.73
2022-10-05T22:26:35.844Z,28.71
2022-10-05T22:29:07.388Z,33.43
2022-10-05T22:31:35.599Z,39.02
2022-10-05T22:34:04.369Z,37.31
2022-10-05T22:36:34.304Z,34.66
2022-10-05T22:39:06.740Z,31.76
2022-10-05T22:41:34.821Z,29.49
2022-10-05T22:44:07.770Z,29.63
2022-10-05T22:46:36.244Z,29.09
2022-10-05T22:49:04.283Z,29.35
2022-10-05T22:51:32.373Z,32.49
2022-10-05T22:54:02.963Z,34.26
2022-10-05T22:56:31.098Z,32.32
2022-10-05T22:58:59.278Z,31.12
2022-10-05T23:01:27.358Z,29.69
2022-10-05T23:03:57.727Z,28.96
2022-10-05T23:06:26.008Z,29.93
2022-10-05T23:08:55.581Z,29.34
2022-10-05T23:11:26.250Z,32.23
2022-10-05T23:13:57.852Z,36.51
2022-10-05T23:16:28.015Z,38.50
2022-10-05T23:18:56.685Z,37.70
2022-10-05T23:21:26.569Z,39.50
2022-10-05T23:23:54.710Z,37.24
2022-10-05T23:26:25.740Z,38.60
2022-10-05T23:28:53.754Z,38.72
2022-10-05T23:31:31.000Z,41.89
2022-10-05T23:33:59.077Z,34.68
2022-10-05T23:36:30.540Z,32.90
2022-10-05T23:38:58.644Z,32.49
2022-10-05T23:41:26.717Z,31.64
2022-10-05T23:43:54.796Z,31.04
2022-10-05T23:46:25.557Z,30.26
2022-10-05T23:48:53.686Z,29.59
2022-10-05T23:51:21.701Z,28.99
2022-10-05T23:53:49.709Z,29.13
2022-10-05T23:56:17.825Z,28.44
2022-10-05T23:58:45.848Z,27.75
